createdAt,value
2023-05-10T00:00:57.012Z,2.50
2023-05-10T00:03:24.260Z,2.50
2023-05-10T00:05:51.227Z,2.00
2023-05-10T00:08:18.159Z,2.20
2023-05-10T00:10:45.161Z,1.80
2023-05-10T00:13:12.144Z,2.40
2023-05-10T00:15:39.058Z,2.40
2023-05-10T00:18:06.471Z,2.50
2023-05-10T00:20:33.503Z,2.30
2023-05-10T00:23:00.518Z,2.60
2023-05-10T00:25:27.649Z,2.60
2023-05-10T00:27:56.553Z,2.40
2023-05-10T00:30:23.513Z,2.40
2023-05-10T00:32:50.981Z,2.30
2023-05-10T00:35:18.038Z,2.40
2023-05-10T00:37:44.959Z,2.20
2023-05-10T00:40:12.489Z,2.60
2023-05-10T00:42:40.696Z,2.80
2023-05-10T00:45:08.362Z,2.40
2023-05-10T00:47:36.301Z,2.00
2023-05-10T00:50:03.834Z,1.90
2023-05-10T00:52:31.525Z,2.20
2023-05-10T00:54:59.695Z,2.30
2023-05-10T00:57:26.709Z,2.40
2023-05-10T00:59:53.797Z,2.50
2023-05-10T01:02:20.783Z,2.80
2023-05-10T01:04:48.544Z,2.80
2023-05-10T01:07:15.616Z,2.20
2023-05-10T01:09:44.015Z,1.90
2023-05-10T01:12:12.557Z,2.20
2023-05-10T01:14:39.901Z,2.60
2023-05-10T01:17:08.561Z,2.30
2023-05-10T01:19:38.133Z,2.50
2023-05-10T01:22:48.420Z,2.40
2023-05-10T01:25:40.513Z,2.30
2023-05-10T01:28:22.859Z,1.90
2023-05-10T01:31:10.239Z,2.10
2023-05-10T01:33:53.619Z,2.50
2023-05-10T01:36:39.093Z,2.20
2023-05-10T01:39:15.776Z,2.80
2023-05-10T01:42:05.162Z,2.70
2023-05-10T01:45:01.032Z,2.70
2023-05-10T01:47:38.843Z,2.50
2023-05-10T01:50:26.383Z,2.10
2023-05-10T01:52:56.096Z,2.30
2023-05-10T01:55:26.621Z,2.20
2023-05-10T01:58:03.702Z,2.40
2023-05-10T02:00:32.574Z,2.30
2023-05-10T02:03:05.247Z,2.70
2023-05-10T02:05:34.573Z,2.30
2023-05-10T02:08:04.186Z,1.90
2023-05-10T02:10:32.265Z,2.40
2023-05-10T02:13:01.494Z,2.40
2023-05-10T02:15:29.841Z,2.50
2023-05-10T02:17:58.760Z,2.60
2023-05-10T02:20:27.312Z,2.90
2023-05-10T02:22:57.218Z,2.70
2023-05-10T02:25:26.329Z,2.50
2023-05-10T02:27:57.252Z,2.10
2023-05-10T02:30:25.329Z,2.20
2023-05-10T02:32:53.526Z,2.50
2023-05-10T02:35:22.289Z,2.60
2023-05-10T02:37:49.960Z,2.60
2023-05-10T02:40:19.592Z,2.60
2023-05-10T02:42:48.658Z,2.30
2023-05-10T02:45:20.831Z,2.00
2023-05-10T02:47:48.499Z,2.40
2023-05-10T02:50:16.347Z,2.30
2023-05-10T02:52:55.690Z,2.40
2023-05-10T02:55:33.586Z,2.30
2023-05-10T02:58:02.696Z,2.80
2023-05-10T03:00:30.667Z,2.90
2023-05-10T03:02:57.939Z,2.40
2023-05-10T03:05:25.568Z,2.10
2023-05-10T03:07:53.943Z,2.60
2023-05-10T03:10:27.852Z,2.10
2023-05-10T03:13:06.291Z,3.10
2023-05-10T03:16:05.700Z,2.50
2023-05-10T03:18:42.695Z,2.60
2023-05-10T03:21:13.693Z,2.50
2023-05-10T03:23:47.260Z,1.90
2023-05-10T03:26:21.818Z,2.70
2023-05-10T03:28:51.014Z,2.40
2023-05-10T03:31:18.804Z,2.70
2023-05-10T03:33:50.466Z,2.70
2023-05-10T03:36:20.768Z,2.80
2023-05-10T03:38:48.071Z,2.60
2023-05-10T03:41:15.477Z,2.20
2023-05-10T03:43:42.737Z,2.00
2023-05-10T03:46:09.772Z,2.20
2023-05-10T03:48:36.920Z,2.60
2023-05-10T03:51:03.945Z,2.70
2023-05-10T03:53:31.118Z,2.40
2023-05-10T03:55:58.470Z,2.90
2023-05-10T03:58:26.145Z,2.50
2023-05-10T04:00:53.502Z,2.10
2023-05-10T04:03:21.637Z,2.60
2023-05-10T04:05:48.826Z,2.10
2023-05-10T04:08:17.542Z,2.60
2023-05-10T04:10:44.756Z,2.40
2023-05-10T04:13:12.379Z,2.80
2023-05-10T04:15:39.558Z,3.00
2023-05-10T04:18:08.863Z,2.50
2023-05-10T04:20:36.119Z,2.00
2023-05-10T04:23:03.060Z,2.50
2023-05-10T04:25:30.041Z,2.40
2023-05-10T04:27:57.054Z,2.60
2023-05-10T04:30:23.999Z,2.60
2023-05-10T04:32:50.980Z,2.80
2023-05-10T04:35:18.088Z,2.30
2023-05-10T04:37:45.141Z,2.00
2023-05-10T04:40:12.604Z,2.10
2023-05-10T04:42:42.822Z,2.30
2023-05-10T04:45:10.884Z,2.40
2023-05-10T04:47:38.391Z,2.70
2023-05-10T04:50:07.853Z,2.50
2023-05-10T04:52:34.798Z,2.50
2023-05-10T04:55:01.849Z,1.90
2023-05-10T04:57:28.913Z,2.10
2023-05-10T04:59:55.834Z,2.70
2023-05-10T05:02:23.066Z,2.50
2023-05-10T05:04:50.133Z,2.80
2023-05-10T05:07:17.054Z,2.60
2023-05-10T05:09:43.947Z,2.30
2023-05-10T05:12:15.299Z,2.10
2023-05-10T05:14:42.521Z,2.40
2023-05-10T05:17:09.463Z,2.40
2023-05-10T05:19:36.977Z,2.60
2023-05-10T05:22:04.209Z,2.80
2023-05-10T05:24:37.024Z,2.60
2023-05-10T05:27:04.105Z,2.90
2023-05-10T05:29:31.154Z,2.80
2023-05-10T05:31:58.156Z,1.90
2023-05-10T05:34:25.453Z,2.40
2023-05-10T05:36:53.012Z,2.40
2023-05-10T05:39:19.885Z,2.60
2023-05-10T05:41:47.850Z,2.60
2023-05-10T05:44:14.770Z,2.20
2023-05-10T05:46:41.822Z,2.80
2023-05-10T05:49:08.765Z,2.30
2023-05-10T05:51:37.838Z,2.60
2023-05-10T05:54:05.727Z,2.70
2023-05-10T05:56:32.712Z,3.00
2023-05-10T05:58:59.720Z,2.90
2023-05-10T06:01:26.678Z,2.70
2023-05-10T06:03:53.856Z,2.50
2023-05-10T06:06:21.082Z,2.40
2023-05-10T06:08:47.961Z,2.30
2023-05-10T06:11:14.958Z,2.20
2023-05-10T06:13:43.364Z,2.50
2023-05-10T06:16:10.514Z,2.70
2023-05-10T06:18:37.455Z,3.30
2023-05-10T06:21:04.580Z,3.10
2023-05-10T06:23:32.427Z,3.50
2023-05-10T06:25:59.600Z,2.50
2023-05-10T06:28:26.587Z,2.40
2023-05-10T06:30:53.600Z,2.40
2023-05-10T06:33:20.860Z,2.60
2023-05-10T06:35:47.710Z,2.80
2023-05-10T06:38:14.638Z,2.80
2023-05-10T06:40:45.053Z,3.10
2023-05-10T06:43:12.002Z,3.40
2023-05-10T06:45:39.156Z,2.50
2023-05-10T06:48:06.665Z,2.10
2023-05-10T06:50:34.475Z,2.60
2023-05-10T06:53:03.052Z,2.70
2023-05-10T06:55:30.645Z,2.70
2023-05-10T06:57:58.688Z,2.80
2023-05-10T07:00:25.842Z,2.80
2023-05-10T07:02:53.177Z,3.20
2023-05-10T07:05:21.417Z,2.40
2023-05-10T07:07:49.129Z,2.00
2023-05-10T07:10:22.086Z,2.90
2023-05-10T07:12:56.888Z,2.50
2023-05-10T07:15:29.402Z,2.60
2023-05-10T07:18:02.980Z,2.50
2023-05-10T07:20:36.643Z,2.80
2023-05-10T07:23:11.438Z,2.60
2023-05-10T07:25:42.779Z,2.30
2023-05-10T07:28:09.947Z,2.00
2023-05-10T07:30:37.304Z,2.30
2023-05-10T07:33:04.346Z,2.50
2023-05-10T07:35:34.297Z,2.50
2023-05-10T07:38:02.246Z,2.30
2023-05-10T07:40:30.147Z,2.80
2023-05-10T07:42:57.648Z,2.80
2023-05-10T07:45:24.920Z,2.20
2023-05-10T07:47:52.132Z,2.40
2023-05-10T07:50:20.214Z,2.50
2023-05-10T07:52:47.448Z,2.60
2023-05-10T07:55:14.710Z,2.70
2023-05-10T07:57:42.296Z,3.10
2023-05-10T08:00:10.704Z,3.10
2023-05-10T08:02:41.909Z,2.70
2023-05-10T08:05:09.277Z,2.40
2023-05-10T08:07:36.629Z,2.70
2023-05-10T08:10:04.721Z,2.40
2023-05-10T08:12:34.625Z,3.00
2023-05-10T08:15:01.870Z,2.60
2023-05-10T08:17:29.560Z,2.80
2023-05-10T08:19:56.622Z,2.90
2023-05-10T08:22:23.837Z,3.50
2023-05-10T08:24:50.878Z,3.10
2023-05-10T08:27:17.771Z,2.50
2023-05-10T08:29:50.187Z,2.50
2023-05-10T08:32:18.354Z,3.10
2023-05-10T08:34:45.530Z,2.80
2023-05-10T08:37:14.503Z,3.50
2023-05-10T08:39:41.940Z,3.00
2023-05-10T08:42:11.024Z,3.20
2023-05-10T08:44:38.521Z,3.20
2023-05-10T08:47:10.308Z,3.80
2023-05-10T08:49:39.170Z,3.20
2023-05-10T08:52:10.103Z,2.70
2023-05-10T08:54:39.830Z,2.50
2023-05-10T08:57:07.476Z,3.20
2023-05-10T08:59:35.161Z,3.40
2023-05-10T09:02:03.468Z,3.50
2023-05-10T09:04:31.037Z,3.20
2023-05-10T09:06:58.748Z,3.20
2023-05-10T09:09:27.327Z,4.00
2023-05-10T09:11:55.497Z,3.40
2023-05-10T09:14:26.068Z,2.90
2023-05-10T09:16:55.471Z,2.90
2023-05-10T09:19:22.409Z,3.20
2023-05-10T09:21:50.555Z,3.40
2023-05-10T09:24:17.399Z,3.50
2023-05-10T09:26:49.706Z,3.50
2023-05-10T09:29:17.645Z,4.10
2023-05-10T09:31:47.513Z,3.60
2023-05-10T09:34:29.597Z,4.30
2023-05-10T09:36:59.179Z,3.80
2023-05-10T09:39:33.477Z,3.20
2023-05-10T09:42:04.828Z,2.90
2023-05-10T09:44:32.818Z,3.30
2023-05-10T09:47:00.321Z,3.50
2023-05-10T09:49:27.895Z,3.40
2023-05-10T09:52:06.658Z,3.80
2023-05-10T09:54:35.155Z,3.70
2023-05-10T09:57:02.505Z,3.80
2023-05-10T09:59:30.946Z,4.20
2023-05-10T10:01:59.676Z,3.80
2023-05-10T10:04:27.474Z,4.60
2023-05-10T10:07:05.477Z,6.30
2023-05-10T10:09:33.660Z,12.60
2023-05-10T10:12:01.695Z,21.70
2023-05-10T10:14:29.648Z,26.20
2023-05-10T10:17:07.439Z,30.60
2023-05-10T10:19:37.077Z,24.80
2023-05-10T10:22:04.504Z,25.30
2023-05-10T10:24:31.551Z,30.50
2023-05-10T10:27:05.666Z,33.40
2023-05-10T10:29:45.623Z,35.50
2023-05-10T10:32:34.374Z,36.50
2023-05-10T10:35:01.584Z,36.50
2023-05-10T10:37:46.665Z,35.70
2023-05-10T10:40:33.631Z,35.50
2023-05-10T10:43:25.463Z,35.50
2023-05-10T10:46:18.576Z,35.70
2023-05-10T10:48:52.636Z,35.60
2023-05-10T10:51:19.827Z,37.80
2023-05-10T10:53:49.402Z,35.20
2023-05-10T10:56:16.945Z,35.60
2023-05-10T10:58:52.624Z,36.50
2023-05-10T11:01:20.873Z,36.00
2023-05-10T11:04:00.336Z,34.90
2023-05-10T11:06:35.014Z,33.50
2023-05-10T11:09:14.604Z,33.80
2023-05-10T11:11:59.619Z,32.40
2023-05-10T11:14:27.053Z,26.10
2023-05-10T11:16:54.176Z,24.50
2023-05-10T11:19:21.452Z,26.90
2023-05-10T11:21:51.799Z,26.90
2023-05-10T11:24:21.647Z,26.50
2023-05-10T11:26:53.448Z,27.50
2023-05-10T11:29:21.547Z,26.50
2023-05-10T11:31:50.414Z,27.40
2023-05-10T11:34:28.004Z,26.10
2023-05-10T11:36:56.232Z,25.80
2023-05-10T11:39:27.948Z,26.30
2023-05-10T11:41:55.910Z,25.40
2023-05-10T11:44:23.037Z,26.10
2023-05-10T11:46:51.046Z,26.20
2023-05-10T11:49:18.278Z,25.10
2023-05-10T11:51:45.860Z,23.90
2023-05-10T11:54:13.734Z,25.00
2023-05-10T11:56:42.194Z,19.50
2023-05-10T11:59:09.771Z,18.30
2023-05-10T12:01:37.311Z,21.60
2023-05-10T12:04:04.981Z,23.10
2023-05-10T12:06:37.767Z,23.20
2023-05-10T12:09:09.153Z,22.90
2023-05-10T12:11:43.310Z,24.20
2023-05-10T12:14:11.694Z,23.20
2023-05-10T12:16:38.869Z,22.50
2023-05-10T12:19:06.735Z,18.00
2023-05-10T12:21:34.535Z,16.40
2023-05-10T12:24:06.350Z,19.50
2023-05-10T12:26:34.091Z,20.80
2023-05-10T12:29:19.178Z,19.50
2023-05-10T12:32:03.552Z,21.00
2023-05-10T12:34:37.208Z,21.50
2023-05-10T12:37:04.880Z,20.40
2023-05-10T12:39:43.587Z,15.50
2023-05-10T12:42:11.233Z,14.50
2023-05-10T12:44:39.274Z,16.10
2023-05-10T12:47:07.260Z,17.30
2023-05-10T12:49:35.300Z,17.80
2023-05-10T12:52:02.837Z,17.20
2023-05-10T12:54:34.411Z,17.70
2023-05-10T12:57:01.456Z,15.50
2023-05-10T12:59:28.585Z,14.30
2023-05-10T13:01:55.639Z,14.70
2023-05-10T13:04:22.684Z,15.60
2023-05-10T13:06:49.730Z,15.90
2023-05-10T13:09:16.653Z,15.80
2023-05-10T13:11:44.226Z,14.90
2023-05-10T13:14:11.122Z,16.00
2023-05-10T13:16:38.228Z,13.00
2023-05-10T13:19:05.728Z,12.40
2023-05-10T13:21:32.832Z,13.50
2023-05-10T13:23:59.976Z,13.80
2023-05-10T13:26:27.505Z,15.80
2023-05-10T13:28:56.756Z,14.40
2023-05-10T13:31:23.790Z,15.40
2023-05-10T13:33:51.037Z,15.20
2023-05-10T13:36:18.498Z,12.80
2023-05-10T13:38:45.442Z,10.70
2023-05-10T13:41:12.485Z,13.00
2023-05-10T13:43:39.435Z,13.30
2023-05-10T13:46:06.511Z,13.50
2023-05-10T13:48:34.856Z,13.70
2023-05-10T13:51:03.069Z,14.60
2023-05-10T13:53:30.327Z,13.90
2023-05-10T13:55:57.345Z,12.70
2023-05-10T13:58:24.809Z,11.10
2023-05-10T14:00:51.693Z,12.00
2023-05-10T14:03:18.817Z,13.20
2023-05-10T14:05:46.444Z,13.00
2023-05-10T14:08:14.519Z,13.90
2023-05-10T14:10:41.498Z,13.30
2023-05-10T14:13:09.127Z,13.60
2023-05-10T14:15:36.174Z,12.10
2023-05-10T14:18:03.727Z,10.80
2023-05-10T14:20:31.134Z,10.00
2023-05-10T14:22:58.092Z,12.00
2023-05-10T14:25:25.487Z,12.00
2023-05-10T14:27:52.530Z,12.00
2023-05-10T14:30:19.787Z,12.90
2023-05-10T14:32:46.694Z,12.30
2023-05-10T14:35:15.566Z,11.40
2023-05-10T14:37:44.715Z,10.10
2023-05-10T14:40:12.235Z,10.70
2023-05-10T14:42:39.630Z,11.10
2023-05-10T14:45:07.089Z,11.30
2023-05-10T14:47:34.453Z,12.00
2023-05-10T14:50:01.424Z,11.40
2023-05-10T14:52:29.271Z,10.60
2023-05-10T14:54:56.497Z,9.80
2023-05-10T14:57:23.546Z,9.60
2023-05-10T14:59:50.497Z,10.30
2023-05-10T15:02:18.162Z,10.70
2023-05-10T15:04:45.505Z,11.10
2023-05-10T15:07:15.640Z,10.90
2023-05-10T15:09:42.967Z,11.90
2023-05-10T15:12:09.866Z,9.90
2023-05-10T15:14:37.508Z,8.90
2023-05-10T15:17:05.125Z,9.20
2023-05-10T15:19:32.105Z,9.90
2023-05-10T15:21:58.990Z,10.00
2023-05-10T15:24:26.794Z,10.90
2023-05-10T15:26:53.801Z,11.40
2023-05-10T15:29:21.141Z,10.90
2023-05-10T15:31:49.302Z,9.50
2023-05-10T15:34:16.526Z,9.00
2023-05-10T15:36:43.649Z,8.20
2023-05-10T15:39:10.735Z,9.10
2023-05-10T15:41:37.628Z,9.60
2023-05-10T15:44:05.127Z,9.70
2023-05-10T15:46:32.364Z,9.90
2023-05-10T15:49:02.610Z,9.70
2023-05-10T15:51:30.032Z,10.10
2023-05-10T15:54:06.600Z,8.30
2023-05-10T15:56:35.379Z,7.00
2023-05-10T15:59:02.610Z,9.50
2023-05-10T16:01:30.999Z,9.30
2023-05-10T16:03:58.153Z,9.90
2023-05-10T16:06:25.312Z,9.60
2023-05-10T16:08:54.709Z,9.10
2023-05-10T16:11:22.187Z,10.40
2023-05-10T16:13:49.267Z,8.70
2023-05-10T16:16:17.546Z,7.90
2023-05-10T16:18:44.574Z,8.40
2023-05-10T16:21:11.954Z,9.00
2023-05-10T16:23:38.821Z,9.30
2023-05-10T16:26:05.729Z,10.00
2023-05-10T16:28:33.492Z,9.70
2023-05-10T16:31:01.712Z,9.50
2023-05-10T16:33:29.131Z,9.10
2023-05-10T16:35:57.288Z,7.90
2023-05-10T16:38:24.441Z,8.20
2023-05-10T16:40:51.353Z,9.20
2023-05-10T16:43:18.503Z,9.10
2023-05-10T16:45:45.488Z,9.00
2023-05-10T16:48:12.941Z,9.80
2023-05-10T16:50:43.981Z,9.40
2023-05-10T16:53:11.848Z,9.50
2023-05-10T16:55:38.894Z,9.00
2023-05-10T16:58:06.365Z,9.30
2023-05-10T17:00:33.522Z,9.40
2023-05-10T17:03:00.539Z,9.10
2023-05-10T17:05:27.748Z,10.10
2023-05-10T17:07:54.954Z,8.90
2023-05-10T17:10:22.331Z,7.30
2023-05-10T17:12:49.458Z,8.60
2023-05-10T17:15:17.788Z,8.50
2023-05-10T17:17:45.838Z,9.30
2023-05-10T17:20:12.990Z,9.00
2023-05-10T17:22:43.349Z,8.90
2023-05-10T17:25:10.728Z,9.00
2023-05-10T17:27:37.665Z,8.80
2023-05-10T17:30:05.763Z,8.80
2023-05-10T17:32:35.598Z,8.60
2023-05-10T17:35:05.374Z,8.90
2023-05-10T17:37:35.640Z,9.50
2023-05-10T17:40:04.006Z,7.10
2023-05-10T17:42:30.810Z,7.10
2023-05-10T17:44:57.711Z,7.50
2023-05-10T17:47:25.215Z,7.90
2023-05-10T17:49:52.371Z,7.80
2023-05-10T17:52:19.805Z,8.20
2023-05-10T17:54:47.626Z,8.00
2023-05-10T17:57:14.542Z,8.70
2023-05-10T17:59:44.650Z,8.60
2023-05-10T18:02:12.429Z,8.20
2023-05-10T18:04:43.814Z,8.40
2023-05-10T18:07:11.667Z,8.80
2023-05-10T18:09:38.648Z,8.20
2023-05-10T18:12:06.410Z,8.10
2023-05-10T18:14:40.485Z,7.80
2023-05-10T18:17:09.997Z,6.90
2023-05-10T18:19:37.385Z,7.90
2023-05-10T18:22:04.587Z,7.50
2023-05-10T18:24:38.264Z,7.20
2023-05-10T18:27:08.285Z,8.20
2023-05-10T18:29:36.432Z,7.90
2023-05-10T18:32:09.729Z,8.60
2023-05-10T18:34:39.271Z,8.30
2023-05-10T18:37:08.102Z,7.70
2023-05-10T18:39:36.645Z,7.60
2023-05-10T18:42:05.522Z,8.80
2023-05-10T18:44:33.501Z,8.40
2023-05-10T18:47:00.639Z,6.90
2023-05-10T18:49:29.720Z,6.20
2023-05-10T18:51:59.587Z,6.80
2023-05-10T18:54:27.114Z,6.90
2023-05-10T18:56:54.059Z,7.50
2023-05-10T18:59:20.944Z,8.00
2023-05-10T19:01:50.182Z,8.30
2023-05-10T19:04:18.417Z,8.30
2023-05-10T19:06:45.529Z,8.10
2023-05-10T19:09:12.570Z,8.30
2023-05-10T19:11:39.922Z,8.30
2023-05-10T19:14:06.839Z,7.90
2023-05-10T19:16:35.932Z,8.30
2023-05-10T19:19:03.038Z,7.20
2023-05-10T19:21:30.538Z,6.50
2023-05-10T19:23:57.948Z,7.00
2023-05-10T19:26:26.634Z,6.90
2023-05-10T19:28:54.180Z,7.80
2023-05-10T19:31:22.172Z,7.50
2023-05-10T19:33:49.601Z,7.30
2023-05-10T19:36:16.685Z,7.60
2023-05-10T19:38:43.702Z,7.10
2023-05-10T19:41:11.813Z,8.10
2023-05-10T19:43:40.037Z,8.00
2023-05-10T19:46:07.055Z,7.40
2023-05-10T19:48:34.067Z,7.60
2023-05-10T19:51:08.431Z,7.60
2023-05-10T19:53:36.533Z,7.50
2023-05-10T19:56:07.676Z,7.70
2023-05-10T19:58:34.704Z,6.60
2023-05-10T20:01:02.818Z,5.70
2023-05-10T20:03:30.678Z,6.30
2023-05-10T20:05:57.706Z,6.90
2023-05-10T20:08:25.584Z,7.00
2023-05-10T20:10:52.815Z,7.10
2023-05-10T20:13:19.870Z,7.10
2023-05-10T20:15:47.111Z,6.60
2023-05-10T20:18:14.245Z,6.30
2023-05-10T20:20:41.721Z,6.90
2023-05-10T20:23:08.702Z,7.00
2023-05-10T20:25:36.020Z,6.90
2023-05-10T20:28:04.191Z,7.00
2023-05-10T20:30:31.557Z,6.60
2023-05-10T20:32:59.354Z,6.90
2023-05-10T20:35:26.562Z,6.70
2023-05-10T20:37:54.238Z,6.60
2023-05-10T20:40:21.962Z,6.80
2023-05-10T20:42:49.861Z,6.00
2023-05-10T20:45:17.223Z,4.80
2023-05-10T20:47:44.412Z,5.70
2023-05-10T20:50:11.918Z,5.90
2023-05-10T20:52:38.859Z,5.80
2023-05-10T20:55:06.541Z,6.40
2023-05-10T20:57:33.578Z,6.20
2023-05-10T21:00:00.848Z,6.40
2023-05-10T21:02:28.529Z,6.20
2023-05-10T21:04:57.822Z,6.20
2023-05-10T21:07:25.260Z,6.50
2023-05-10T21:09:52.628Z,6.10
2023-05-10T21:12:19.756Z,6.00
2023-05-10T21:14:48.021Z,6.30
2023-05-10T21:17:20.211Z,6.10
2023-05-10T21:19:48.445Z,5.80
2023-05-10T21:22:16.775Z,6.20
2023-05-10T21:24:44.008Z,6.40
2023-05-10T21:27:11.360Z,6.10
2023-05-10T21:29:38.357Z,6.00
2023-05-10T21:32:08.285Z,5.20
2023-05-10T21:34:35.380Z,4.40
2023-05-10T21:37:02.384Z,4.60
2023-05-10T21:39:29.885Z,5.40
2023-05-10T21:41:57.894Z,5.50
2023-05-10T21:44:28.278Z,5.30
2023-05-10T21:46:55.542Z,5.80
2023-05-10T21:49:22.854Z,5.60
2023-05-10T21:51:50.025Z,5.40
2023-05-10T21:54:17.176Z,5.50
2023-05-10T21:56:44.124Z,5.70
2023-05-10T21:59:11.469Z,5.70
2023-05-10T22:01:39.111Z,5.80
2023-05-10T22:04:06.312Z,5.70
2023-05-10T22:06:33.342Z,5.50
2023-05-10T22:09:00.378Z,5.80
2023-05-10T22:11:27.641Z,5.60
2023-05-10T22:13:54.695Z,5.50
2023-05-10T22:16:21.860Z,5.10
2023-05-10T22:18:49.381Z,5.50
2023-05-10T22:21:16.610Z,5.10
2023-05-10T22:23:43.603Z,4.30
2023-05-10T22:26:10.632Z,4.10
2023-05-10T22:28:37.796Z,4.00
2023-05-10T22:31:09.798Z,4.40
2023-05-10T22:33:36.691Z,4.70
2023-05-10T22:36:04.045Z,4.70
2023-05-10T22:38:31.100Z,5.50
2023-05-10T22:40:58.973Z,4.50
2023-05-10T22:43:25.900Z,5.30
2023-05-10T22:45:53.666Z,4.50
2023-05-10T22:48:21.318Z,5.20
2023-05-10T22:50:48.212Z,5.20
2023-05-10T22:53:15.675Z,5.10
2023-05-10T22:55:42.636Z,5.00
2023-05-10T22:58:10.370Z,5.00
2023-05-10T23:00:38.411Z,4.70
2023-05-10T23:03:06.822Z,4.80
2023-05-10T23:05:35.791Z,4.70
2023-05-10T23:08:02.839Z,4.90
2023-05-10T23:10:29.705Z,5.00
2023-05-10T23:12:56.717Z,4.90
2023-05-10T23:15:23.758Z,5.30
2023-05-10T23:17:51.073Z,4.10
2023-05-10T23:20:18.780Z,3.80
2023-05-10T23:22:46.011Z,4.00
2023-05-10T23:25:13.133Z,4.20
2023-05-10T23:27:40.279Z,5.20
2023-05-10T23:30:07.875Z,4.20
2023-05-10T23:32:34.833Z,4.40
2023-05-10T23:35:02.294Z,4.60
2023-05-10T23:37:29.521Z,4.70
2023-05-10T23:39:56.670Z,4.60
2023-05-10T23:42:23.553Z,4.70
2023-05-10T23:44:53.836Z,4.30
2023-05-10T23:47:20.851Z,4.50
2023-05-10T23:49:49.671Z,4.50
2023-05-10T23:52:16.587Z,5.40
2023-05-10T23:54:45.757Z,4.30
2023-05-10T23:57:12.916Z,4.50
2023-05-10T23:59:39.790Z,4.60
